PWSweather.com
Personal Weather Stations
Station Observations
KPAEXPOR2
Wellington Estates, Export, PA 15632

Wellington EstatesExport, PA 15632

Lat: 40.446, Lon: -79.592

Elevation: 1286

Station Type: PWS1000-TD

http://www.westmorelandweather.com

Latest ConditionsUpdated 12:00:00 PM EDT Thursday, Mar 23, 2017
Currently Today's Max Today's Min Today's Average
Temperature 40.7°F4.8°C 41.3°F5.2°C 16.1°F-8.8°C 23.8°F-4.6°C
Dew Point -3.4°F-19.7°C 2.2°F-16.6°C -15.2°F-26.2°C -4.7°F-20.4°C
Winds 5.5 mph S8.9 kmh S 6.6 mph ESE10.6 kmh ESE - 2.0 mph 3.2 kmh
Wind Gusts 9.8 mph15.8 kmh 9.8 mph15.8 kmh - -
Humidity 15% 48% 15% 30%
Pressure 30.61 in1036.6 mb 30.63 in1037.3 mb 30.55 in1034.5 mb -
Hour Temp Dew Point Humidity Winds Wind Gusts Pressure Precip Precip Rate Daily Precip Total
12:00 PM 40.7°F4.8°C -3.4°F-19.7°C 15% 5.5 mph S8.9 kmh S 9.8 mph15.8 kmh 30.61 in1036.6 mb 0.00 in0.0 mm 0.00 in0.0 mm 0.00 in0.0 mm
11:45 AM 41.3°F5.2°C -3.0°F-19.4°C 15% 5.1 mph ESE8.2 kmh ESE 8.3 mph13.4 kmh 30.61 in1036.6 mb 0.00 in0.0 mm 0.00 in0.0 mm 0.00 in0.0 mm
11:30 AM 40.4°F4.7°C -3.7°F-19.8°C 15% 3.6 mph ESE5.8 kmh ESE 6.0 mph9.7 kmh 30.62 in1036.9 mb 0.00 in0.0 mm 0.00 in0.0 mm 0.00 in0.0 mm
11:15 AM 38.9°F3.8°C -4.9°F-20.5°C 15% 5.2 mph NE8.4 kmh NE 7.6 mph12.2 kmh 30.62 in1036.9 mb 0.00 in0.0 mm 0.00 in0.0 mm 0.00 in0.0 mm
11:00 AM 36.9°F2.7°C -6.5°F-21.4°C 15% 4.8 mph NE7.7 kmh NE 7.6 mph12.2 kmh 30.63 in1037.3 mb 0.00 in0.0 mm 0.00 in0.0 mm 0.00 in0.0 mm
10:45 AM 35.3°F1.8°C -6.5°F-21.4°C 16% 4.1 mph NNE6.6 kmh NNE 6.0 mph9.7 kmh 30.63 in1037.3 mb 0.00 in0.0 mm 0.00 in0.0 mm 0.00 in0.0 mm
10:30 AM 34.4°F1.3°C -4.8°F-20.4°C 18% 4.1 mph NE6.6 kmh NE 6.9 mph11.1 kmh 30.63 in1037.3 mb 0.00 in0.0 mm 0.00 in0.0 mm 0.00 in0.0 mm
10:15 AM 32.4°F0.2°C -2.3°F-19.1°C 22% 3.9 mph NE6.3 kmh NE 6.0 mph9.7 kmh 30.63 in1037.3 mb 0.00 in0.0 mm 0.00 in0.0 mm 0.00 in0.0 mm
10:00 AM 32.1°F0.1°C -1.6°F-18.7°C 23% 3.9 mph E6.3 kmh E 6.0 mph9.7 kmh 30.62 in1036.9 mb 0.00 in0.0 mm 0.00 in0.0 mm 0.00 in0.0 mm
09:45 AM 30.3°F-0.9°C -2.3°F-19.1°C 24% 6.6 mph ESE10.6 kmh ESE 9.8 mph15.8 kmh 30.62 in1036.9 mb 0.00 in0.0 mm 0.00 in0.0 mm 0.00 in0.0 mm
09:30 AM 28.7°F-1.8°C -2.0°F-18.9°C 26% 6.0 mph E9.7 kmh E 9.2 mph14.8 kmh 30.61 in1036.6 mb 0.00 in0.0 mm 0.00 in0.0 mm 0.00 in0.0 mm
09:15 AM 27.2°F-2.7°C -0.9°F-18.3°C 29% 5.6 mph ENE9.0 kmh ENE 9.2 mph14.8 kmh 30.61 in1036.6 mb 0.00 in0.0 mm 0.00 in0.0 mm 0.00 in0.0 mm
09:00 AM 25.8°F-3.4°C -0.7°F-18.2°C 31% 6.0 mph E9.7 kmh E 9.8 mph15.8 kmh 30.61 in1036.6 mb 0.00 in0.0 mm 0.00 in0.0 mm 0.00 in0.0 mm
08:45 AM 24.2°F-4.3°C 0.4°F-17.6°C 35% 5.6 mph E9.0 kmh E 8.3 mph13.4 kmh 30.61 in1036.6 mb 0.00 in0.0 mm 0.00 in0.0 mm 0.00 in0.0 mm
08:30 AM 22.4°F-5.3°C 2.2°F-16.6°C 41% 3.6 mph E5.8 kmh E 5.4 mph8.7 kmh 30.61 in1036.6 mb 0.00 in0.0 mm 0.00 in0.0 mm 0.00 in0.0 mm
08:15 AM 19.7°F-6.8°C 2.2°F-16.6°C 46% 1.3 mph NNW2.1 kmh NNW 2.2 mph3.5 kmh 30.61 in1036.6 mb 0.00 in0.0 mm 0.00 in0.0 mm 0.00 in0.0 mm
08:00 AM 17.7°F-7.9°C 1.3°F-17.1°C 48% 0.6 mph N1.0 kmh N 1.6 mph2.6 kmh 30.61 in1036.6 mb 0.00 in0.0 mm 0.00 in0.0 mm 0.00 in0.0 mm
07:45 AM 16.8°F-8.4°C 0.5°F-17.5°C 48% 0.5 mph NE0.8 kmh NE 1.6 mph2.6 kmh 30.61 in1036.6 mb 0.00 in0.0 mm 0.00 in0.0 mm 0.00 in0.0 mm
07:30 AM 16.1°F-8.8°C -0.7°F-18.2°C 47% 1.1 mph S1.8 kmh S 1.6 mph2.6 kmh 30.61 in1036.6 mb 0.00 in0.0 mm 0.00 in0.0 mm 0.00 in0.0 mm
07:15 AM 16.1°F-8.8°C -1.1°F-18.4°C 46% 0.4 mph S0.6 kmh S 1.6 mph2.6 kmh 30.61 in1036.6 mb 0.00 in0.0 mm 0.00 in0.0 mm 0.00 in0.0 mm
07:00 AM 16.4°F-8.7°C -0.8°F-18.2°C 46% 0.2 mph NE0.3 kmh NE 0.7 mph1.1 kmh 30.61 in1036.6 mb 0.00 in0.0 mm 0.00 in0.0 mm 0.00 in0.0 mm
06:45 AM 16.4°F-8.7°C -1.3°F-18.5°C 45% Calm Calm -- 30.61 in1036.6 mb 0.00 in0.0 mm 0.00 in0.0 mm 0.00 in0.0 mm
06:30 AM 16.6°F-8.6°C -1.6°F-18.7°C 44% 0.1 mph SSE0.2 kmh SSE 0.7 mph1.1 kmh 30.61 in1036.6 mb 0.00 in0.0 mm 0.00 in0.0 mm 0.00 in0.0 mm
06:15 AM 17.1°F-8.3°C -0.6°F-18.1°C 45% 0.5 mph N0.8 kmh N 1.6 mph2.6 kmh 30.60 in1036.2 mb 0.00 in0.0 mm 0.00 in0.0 mm 0.00 in0.0 mm
06:00 AM 17.1°F-8.3°C -1.6°F-18.7°C 43% Calm Calm -- 30.60 in1036.2 mb 0.00 in0.0 mm 0.00 in0.0 mm 0.00 in0.0 mm
05:45 AM 17.7°F-7.9°C -1.6°F-18.7°C 42% Calm Calm -- 30.60 in1036.2 mb 0.00 in0.0 mm 0.00 in0.0 mm 0.00 in0.0 mm
05:30 AM 17.5°F-8.1°C -2.2°F-19.0°C 41% Calm Calm -- 30.60 in1036.2 mb 0.00 in0.0 mm 0.00 in0.0 mm 0.00 in0.0 mm
05:15 AM 17.9°F-7.8°C -3.0°F-19.4°C 39% Calm Calm -- 30.60 in1036.2 mb 0.00 in0.0 mm 0.00 in0.0 mm 0.00 in0.0 mm
05:00 AM 18.0°F-7.8°C -3.3°F-19.6°C 38% Calm Calm -- 30.59 in1035.9 mb 0.00 in0.0 mm 0.00 in0.0 mm 0.00 in0.0 mm
04:45 AM 18.4°F-7.6°C -3.6°F-19.8°C 37% Calm Calm -- 30.59 in1035.9 mb 0.00 in0.0 mm 0.00 in0.0 mm 0.00 in0.0 mm
04:30 AM 18.8°F-7.3°C -3.8°F-19.9°C 36% Calm Calm -- 30.58 in1035.6 mb 0.00 in0.0 mm 0.00 in0.0 mm 0.00 in0.0 mm
04:15 AM 19.7°F-6.8°C -4.2°F-20.1°C 34% Calm Calm -- 30.57 in1035.2 mb 0.00 in0.0 mm 0.00 in0.0 mm 0.00 in0.0 mm
04:00 AM 19.7°F-6.8°C -4.2°F-20.1°C 34% Calm Calm -- 30.57 in1035.2 mb 0.00 in0.0 mm 0.00 in0.0 mm 0.00 in0.0 mm
03:45 AM 19.8°F-6.8°C -4.7°F-20.4°C 33% Calm Calm -- 30.57 in1035.2 mb 0.00 in0.0 mm 0.00 in0.0 mm 0.00 in0.0 mm
03:30 AM 20.2°F-6.6°C -5.7°F-20.9°C 31% Calm Calm -- 30.57 in1035.2 mb 0.00 in0.0 mm 0.00 in0.0 mm 0.00 in0.0 mm
03:15 AM 20.4°F-6.4°C -5.5°F-20.8°C 31% Calm Calm -- 30.57 in1035.2 mb 0.00 in0.0 mm 0.00 in0.0 mm 0.00 in0.0 mm
03:00 AM 20.9°F-6.2°C -6.4°F-21.3°C 29% Calm Calm -- 30.57 in1035.2 mb 0.00 in0.0 mm 0.00 in0.0 mm 0.00 in0.0 mm
02:45 AM 21.3°F-5.9°C -6.8°F-21.6°C 28% 0.3 mph N0.5 kmh N 0.7 mph1.1 kmh 30.57 in1035.2 mb 0.00 in0.0 mm 0.00 in0.0 mm 0.00 in0.0 mm
02:30 AM 21.5°F-5.8°C -8.2°F-22.3°C 26% 1.1 mph N1.8 kmh N 1.6 mph2.6 kmh 30.57 in1035.2 mb 0.00 in0.0 mm 0.00 in0.0 mm 0.00 in0.0 mm
02:15 AM 21.8°F-5.7°C -9.5°F-23.1°C 24% 0.8 mph N1.3 kmh N 1.6 mph2.6 kmh 30.57 in1035.2 mb 0.00 in0.0 mm 0.00 in0.0 mm 0.00 in0.0 mm
02:00 AM 22.2°F-5.4°C -10.1°F-23.4°C 23% 1.5 mph N2.4 kmh N 3.1 mph5.0 kmh 30.56 in1034.9 mb 0.00 in0.0 mm 0.00 in0.0 mm 0.00 in0.0 mm
01:45 AM 22.4°F-5.3°C -10.8°F-23.8°C 22% 1.1 mph N1.8 kmh N 2.2 mph3.5 kmh 30.56 in1034.9 mb 0.00 in0.0 mm 0.00 in0.0 mm 0.00 in0.0 mm
01:30 AM 22.9°F-5.1°C -11.3°F-24.1°C 21% 0.2 mph NNE0.3 kmh NNE 1.6 mph2.6 kmh 30.56 in1034.9 mb 0.00 in0.0 mm 0.00 in0.0 mm 0.00 in0.0 mm
01:15 AM 23.3°F-4.8°C -12.0°F-24.4°C 20% 2.2 mph N3.5 kmh N 3.1 mph5.0 kmh 30.56 in1034.9 mb 0.00 in0.0 mm 0.00 in0.0 mm 0.00 in0.0 mm
01:00 AM 23.6°F-4.7°C -12.7°F-24.8°C 19% 2.0 mph N3.2 kmh N 3.8 mph6.1 kmh 30.56 in1034.9 mb 0.00 in0.0 mm 0.00 in0.0 mm 0.00 in0.0 mm
12:45 AM 23.8°F-4.6°C -13.6°F-25.3°C 18% 1.7 mph NW2.7 kmh NW 2.2 mph3.5 kmh 30.56 in1034.9 mb 0.00 in0.0 mm 0.00 in0.0 mm 0.00 in0.0 mm
12:30 AM 24.2°F-4.3°C -13.3°F-25.2°C 18% 2.3 mph N3.7 kmh N 4.5 mph7.2 kmh 30.55 in1034.5 mb 0.00 in0.0 mm 0.00 in0.0 mm 0.00 in0.0 mm
12:15 AM 24.5°F-4.2°C -14.2°F-25.7°C 17% 1.9 mph NNE3.1 kmh NNE 2.2 mph3.5 kmh 30.56 in1034.9 mb 0.00 in0.0 mm 0.00 in0.0 mm 0.00 in0.0 mm
12:00 AM 24.7°F-4.1°C -15.2°F-26.2°C 16% 3.8 mph N6.1 kmh N 6.9 mph11.1 kmh 30.55 in1034.5 mb 0.00 in0.0 mm 0.00 in0.0 mm 0.00 in0.0 mm